Terminal Aerodrome Forecast
Issued by NWS Atlanta, GA

Home | Current Version | Previous Version | Text Only | Print | Product List | Glossary On
Versions: 1 2 3 4 5 6 7 8 9 10 11 12 13 14 15 16 17 18 19 20 21 22 23 24
000
FTUS42 KFFC 240524
TAFMCN
TAF
KMCN 240524Z 2406/2506 21006KT P6SM OVC016
     FM240800 21007KT 6SM BR OVC008
     FM241000 22007KT 4SM BR OVC006
     FM241400 24009G15KT P6SM BKN015 OVC030
     FM241700 25010G18KT P6SM SCT035 BKN090
     FM242200 27007KT P6SM SCT100=

USA.gov is the U.S. government's official web portal to all federal, state and local government web resources and services.